createdAt,value
2023-05-03T00:03:55.366Z,83
2023-05-03T00:09:47.984Z,82
2023-05-03T00:15:39.436Z,82.3
2023-05-03T00:21:31.465Z,83.7
2023-05-03T00:27:24.292Z,82.5
2023-05-03T00:33:15.865Z,83.8
2023-05-03T00:39:06.754Z,84.1
2023-05-03T00:44:57.741Z,83.9
2023-05-03T00:50:46.995Z,84.1
2023-05-03T00:56:52.738Z,84.2
2023-05-03T01:02:43.274Z,84.8
2023-05-03T01:08:36.032Z,84.1
2023-05-03T01:14:27.799Z,84.2
2023-05-03T01:20:19.251Z,85.5
2023-05-03T01:26:11.260Z,86.2
2023-05-03T01:32:02.964Z,85.1
2023-05-03T01:37:54.910Z,84.3
2023-05-03T01:43:46.591Z,85.9
2023-05-03T01:49:39.512Z,85
2023-05-03T01:55:31.268Z,86
2023-05-03T02:01:23.083Z,85.8
2023-05-03T02:07:15.494Z,85.9
2023-05-03T02:13:08.927Z,85.5
2023-05-03T02:19:00.952Z,86.1
2023-05-03T02:24:53.797Z,84.9
2023-05-03T02:30:45.685Z,84.2
2023-05-03T02:36:37.212Z,86.5
2023-05-03T02:42:29.360Z,86.6
2023-05-03T02:48:21.023Z,85.6
2023-05-03T02:54:12.578Z,87
2023-05-03T03:00:04.761Z,86.9
2023-05-03T03:05:58.892Z,86.9
2023-05-03T03:11:49.594Z,87.5
2023-05-03T03:17:41.118Z,87.7
2023-05-03T03:23:34.326Z,86.6
2023-05-03T03:29:26.445Z,87.7
2023-05-03T03:35:16.995Z,87
2023-05-03T03:41:08.879Z,87
2023-05-03T03:47:01.409Z,86.4
2023-05-03T03:52:52.785Z,87.3
2023-05-03T03:58:44.852Z,89.2
2023-05-03T04:04:37.273Z,89.8
2023-05-03T04:10:28.476Z,89.4
2023-05-03T04:16:20.793Z,86.8
2023-05-03T04:22:12.749Z,87.7
2023-05-03T04:28:04.979Z,87.7
2023-05-03T04:33:57.006Z,87.4
2023-05-03T04:39:48.526Z,87.9
2023-05-03T04:45:40.983Z,87.8
2023-05-03T04:51:32.851Z,88.1
2023-05-03T04:57:25.113Z,88.2
2023-05-03T05:03:17.291Z,89.6
2023-05-03T05:09:09.873Z,88
2023-05-03T05:15:02.760Z,85.9
2023-05-03T05:20:54.784Z,85.3
2023-05-03T05:26:47.131Z,77.3
2023-05-03T05:32:39.543Z,79.8
2023-05-03T05:38:32.220Z,79.2
2023-05-03T05:44:25.860Z,76.3
2023-05-03T05:50:23.843Z,76.3
2023-05-03T05:56:14.242Z,71.5
2023-05-03T06:02:30.365Z,71.3
2023-05-03T06:08:37.820Z,71.6
2023-05-03T06:27:59.742Z,73.3
2023-05-03T06:34:20.801Z,73.4
2023-05-03T06:40:41.962Z,73.6
2023-05-03T07:14:49.512Z,74.4
2023-05-03T07:21:13.960Z,74.3
2023-05-03T07:27:23.129Z,73.5
2023-05-03T07:33:16.168Z,72.6
2023-05-03T07:39:10.200Z,70.8
2023-05-03T07:45:23.411Z,68.5
2023-05-03T07:51:24.440Z,67.6
2023-05-03T07:57:34.094Z,65.1
2023-05-03T08:03:30.557Z,63.2
2023-05-03T08:09:44.747Z,62.8
2023-05-03T08:15:57.533Z,62.1
2023-05-03T08:22:08.896Z,60.6
2023-05-03T08:34:49.026Z,59.8
2023-05-03T08:40:44.407Z,60.3
2023-05-03T08:46:36.108Z,59.2
2023-05-03T08:52:30.978Z,60.6
2023-05-03T08:58:24.065Z,59.5
2023-05-03T09:04:17.845Z,59
2023-05-03T09:10:16.413Z,57.8
2023-05-03T10:29:13.114Z,53.7
2023-05-03T10:35:36.863Z,53.2
2023-05-03T10:41:41.500Z,54.3
2023-05-03T10:47:38.256Z,54
2023-05-03T10:53:45.193Z,53.9
2023-05-03T11:18:25.546Z,50.5
2023-05-03T11:42:54.172Z,49.5
2023-05-03T11:48:50.032Z,48.3
2023-05-03T11:54:41.269Z,48.4
2023-05-03T12:00:34.307Z,48
2023-05-03T12:06:28.220Z,47.6
2023-05-03T12:12:42.379Z,46.5
2023-05-03T12:18:43.544Z,46.7
2023-05-03T12:24:45.272Z,46.8
2023-05-03T12:30:48.521Z,45.1
2023-05-03T12:36:49.042Z,44.2
2023-05-03T12:43:03.945Z,44.1
2023-05-03T12:49:14.976Z,44.5
2023-05-03T12:55:24.821Z,45.8
2023-05-03T13:08:53.341Z,43.5
2023-05-03T13:14:55.833Z,43.3
2023-05-03T13:38:42.723Z,41.8
2023-05-03T13:44:36.027Z,42.2
2023-05-03T13:50:29.141Z,41.7
2023-05-03T13:56:35.374Z,42.7
2023-05-03T14:20:14.025Z,40.9
2023-05-03T14:26:08.565Z,41
2023-05-03T14:44:19.889Z,40.1
2023-05-03T14:50:12.555Z,41.4
2023-05-03T14:56:05.787Z,38.8
2023-05-03T15:01:58.686Z,39.6
2023-05-03T15:08:01.342Z,38.4
2023-05-03T15:13:56.743Z,39.3
2023-05-03T15:20:06.086Z,38.2
2023-05-03T15:31:58.429Z,37.2
2023-05-03T15:44:17.709Z,38.9
2023-05-03T15:50:11.073Z,36.3
2023-05-03T15:56:06.148Z,36.4
2023-05-03T16:01:59.815Z,37.2
2023-05-03T16:07:53.183Z,36.2
2023-05-03T16:13:51.342Z,36
2023-05-03T16:20:00.925Z,36.7
2023-05-03T16:32:11.225Z,35.4
2023-05-03T16:38:07.796Z,35.9
2023-05-03T16:44:01.369Z,37.2
2023-05-03T16:50:14.567Z,35.5
2023-05-03T17:02:01.507Z,35.8
2023-05-03T17:07:56.453Z,34.8
2023-05-03T17:13:58.598Z,34.8
2023-05-03T17:20:05.519Z,35.2
2023-05-03T17:25:57.133Z,35.9
2023-05-03T17:31:54.970Z,37.8
2023-05-03T17:50:18.384Z,36.3
2023-05-03T17:56:13.716Z,36.8
2023-05-03T18:02:09.449Z,38
2023-05-03T18:08:03.416Z,39.6
2023-05-03T18:13:57.351Z,40.2
2023-05-03T18:19:53.192Z,40.5
2023-05-03T18:25:46.698Z,41.3
2023-05-03T18:31:40.047Z,43.7
2023-05-03T18:37:31.525Z,45.1
2023-05-03T18:43:22.386Z,46.3
2023-05-03T18:49:13.589Z,47.2
2023-05-03T18:55:05.172Z,47.6
2023-05-03T19:00:58.804Z,48.5
2023-05-03T19:06:51.082Z,48.8
2023-05-03T19:12:43.020Z,49.4
2023-05-03T19:18:35.668Z,50.3
2023-05-03T19:24:27.677Z,51.9
2023-05-03T19:30:19.347Z,52.3
2023-05-03T19:36:10.815Z,53.2
2023-05-03T19:42:02.815Z,54.9
2023-05-03T19:47:55.612Z,54.6
2023-05-03T19:53:51.832Z,55.3
2023-05-03T19:59:43.829Z,57
2023-05-03T20:05:36.111Z,56.3
2023-05-03T20:11:33.669Z,57.2
2023-05-03T20:17:27.286Z,57.5
2023-05-03T20:23:19.943Z,59.3
2023-05-03T20:29:12.989Z,58.6
2023-05-03T20:35:08.812Z,61.2
2023-05-03T20:41:01.888Z,62.3
2023-05-03T20:46:54.018Z,64.1
2023-05-03T20:52:55.651Z,64.4
2023-05-03T20:58:48.315Z,65
2023-05-03T21:04:42.348Z,65.3
2023-05-03T21:10:37.262Z,64.7
2023-05-03T21:16:27.812Z,66.3
2023-05-03T22:24:55.979Z,71.8
2023-05-03T22:30:47.932Z,71.8
2023-05-03T22:36:40.360Z,71.4
2023-05-03T23:02:23.947Z,72.3
2023-05-03T23:52:00.238Z,76.2
